Have a Safe July 4th! 

Flight Track Log - Related Links

Times and Time Zones

All times are in EDT time to prevent confusion due to time zone crossing. See the UAL165 flight status page for this flight to view local times or setup timezone preferences in your user account.

Time Position Orientation Groundspeed Altitude Reporting Facility
EDT Latitude Longitude Course Direction KTS MPH feet Rate Location/Type
Sat 05:40:27 PM 13.4833 144.8000 320° Northwest 140 161 1,300  Level Guam Center
Sat 05:41:27 PM 13.5333 144.8000 360° North 220 253 3,800 2,750 Climbing Guam Center
Sat 05:42:00 PM 13.7595 144.6297 320° Northwest  Level Estimated
Sat 05:42:27 PM 13.5833 144.7500 316° Northwest 260 299 6,800  Level Guam Center
Sat 05:43:00 PM 13.8513 144.5738 316° Northwest  Level Estimated
Sat 05:43:28 PM 13.6500 144.7000 324° Northwest 290 334 10,000  Level Guam Center
Sat 05:44:00 PM 13.8809 144.4682 286° West  Level FlightAware Approximate
Sat 05:44:28 PM 13.7167 144.6333 316° Northwest 330 380 12,200  Level Guam Center
Sat 05:45:00 PM 13.9729 144.4124 320° Northwest  Level Estimated
Sat 05:45:28 PM 13.7833 144.5667 316° Northwest 360 414 14,800  Level Guam Center
Sat 05:46:28 PM 13.8667 144.5000 322° Northwest 370 426 17,700 2,700 Climbing Guam Center
Sat 05:47:28 PM 13.9500 144.4167 316° Northwest 380 437 20,200 2,600 Climbing Guam Center
Sat 05:48:28 PM 14.0167 144.3500 316° Northwest 380 437 22,900 2,450 Climbing Guam Center
Sat 05:49:28 PM 14.1000 144.2667 316° Northwest 380 437 25,100 2,050 Climbing Guam Center
Sat 05:50:28 PM 14.1833 144.2000 322° Northwest 400 460 27,000 1,800 Climbing Guam Center
Sat 05:51:28 PM 14.2667 144.1167 316° Northwest 410 472 28,700 1,488 Climbing Guam Center
Sat 05:52:29 PM 14.3500 144.0333 316° Northwest 430 495 30,000 1,339 Climbing Guam Center
Sat 05:53:29 PM 14.4500 143.9500 321° Northwest 440 506 31,400 1,800 Climbing Guam Center
Sat 05:54:29 PM 14.5333 143.8667 316° Northwest 440 506 33,600 2,200 Climbing Guam Center
Sat 05:55:29 PM 14.6167 143.7833 316° Northwest 410 472 35,800 1,700 Climbing Guam Center
Sat 05:56:29 PM 14.7000 143.7000 316° Northwest 410 472 37,000 1,150 Climbing Guam Center
Sat 05:57:29 PM 14.7833 143.6167 316° Northwest 410 472 38,100 992 Climbing Guam Center
Sat 05:58:30 PM 14.8667 143.5500 322° Northwest 410 472 39,000 942 Climbing Guam Center
Sat 05:59:30 PM 14.9500 143.4667 316° Northwest 410 472 40,000 500 Climbing Guam Center
Sat 06:00:30 PM 15.0500 143.3833 321° Northwest 410 472 40,000  Level Guam Center
Sat 06:01:30 PM 15.1167 143.3167 316° Northwest 420 483 40,000  Level Guam Center
Sat 06:02:30 PM 15.2167 143.2167 316° Northwest 410 472 40,000  Level Guam Center
Sat 06:03:30 PM 15.3000 143.1333 316° Northwest 420 483 40,000  Level Guam Center
Sat 06:04:31 PM 15.3833 143.0667 322° Northwest 420 483 40,000  Level Guam Center
Sat 06:05:31 PM 15.4667 142.9833 316° Northwest 410 472 40,000  Level Guam Center
Sat 06:06:31 PM 15.5500 142.9000 316° Northwest 420 483 40,000  Level Guam Center
Sat 06:07:31 PM 15.6167 142.8333 316° Northwest 410 472 40,000  Level Guam Center
Sat 06:09:00 PM 15.7355 142.7237 318° Northwest  Level FlightAware Approximate
Sat 06:16:00 PM 16.2956 142.2048 318° Northwest  Level FlightAware Approximate
Sat 06:17:00 PM 16.3755 142.1304 318° Northwest  Level FlightAware Approximate
Sat 06:18:00 PM 16.4554 142.0560 318° Northwest  Level FlightAware Approximate
Sat 06:19:00 PM 16.5352 141.9814 316° Northwest  Level FlightAware Approximate
Sat 06:20:00 PM 16.6126 141.9041 316° Northwest  Level FlightAware Approximate
Sat 06:20:09 PM 16.5833 141.9500 319° Northwest 415 478 40,000  Level Oakland Oceanic (ODAPS)
Sat 06:21:00 PM 16.6927 141.8299 319° Northwest  Level FlightAware Approximate
Sat 06:22:00 PM 16.7739 141.7568 319° Northwest  Level FlightAware Approximate
Sat 06:23:00 PM 16.8550 141.6836 319° Northwest  Level FlightAware Approximate
Sat 06:24:00 PM 16.9360 141.6104 319° Northwest  Level FlightAware Approximate
Sat 06:25:00 PM 17.0171 141.5372 319° Northwest  Level FlightAware Approximate
Sat 06:26:00 PM 17.1947 141.3951 319° Northwest 415 478 40,000  Level FlightAware Transoceanic
Sat 06:27:00 PM 17.2819 141.3155 319° Northwest 415 478 40,000  Level FlightAware Transoceanic
Sat 06:28:00 PM 17.3691 141.2359 319° Northwest 415 478 40,000  Level FlightAware Transoceanic
Sat 06:29:00 PM 17.4563 141.1562 319° Northwest 415 478 40,000  Level FlightAware Transoceanic
Sat 06:30:00 PM 17.5434 141.0764 319° Northwest 415 478 40,000  Level FlightAware Transoceanic
Sat 06:31:00 PM 17.6305 140.9965 319° Northwest 415 478 40,000  Level FlightAware Transoceanic
Sat 06:32:00 PM 17.7176 140.9165 319° Northwest 415 478 40,000  Level FlightAware Transoceanic
Sat 06:33:00 PM 17.8046 140.8365 319° Northwest 415 478 40,000  Level FlightAware Transoceanic
Sat 06:34:00 PM 17.8916 140.7564 319° Northwest 415 478 40,000  Level FlightAware Transoceanic
Sat 06:35:00 PM 17.9786 140.6762 319° Northwest 415 478 40,000  Level FlightAware Transoceanic
Sat 06:36:00 PM 18.0655 140.5960 319° Northwest 415 478 40,000  Level FlightAware Transoceanic
Sat 06:37:00 PM 18.1524 140.5156 319° Northwest 415 478 40,000  Level FlightAware Transoceanic
Sat 06:38:00 PM 18.2393 140.4352 319° Northwest 415 478 40,000  Level FlightAware Transoceanic
Sat 06:39:00 PM 18.3261 140.3547 319° Northwest 415 478 40,000  Level FlightAware Transoceanic
Sat 06:40:00 PM 18.4129 140.2741 319° Northwest 415 478 40,000  Level FlightAware Transoceanic
Sat 06:41:00 PM 18.4996 140.1934 319° Northwest 415 478 40,000  Level FlightAware Transoceanic
Sat 06:42:00 PM 18.5864 140.1127 319° Northwest 415 478 40,000  Level FlightAware Transoceanic
Sat 06:43:00 PM 18.6731 140.0319 319° Northwest 415 478 40,000  Level FlightAware Transoceanic
Sat 06:44:00 PM 18.7597 139.9509 319° Northwest 415 478 40,000  Level FlightAware Transoceanic
Sat 06:45:00 PM 18.8463 139.8699 318° Northwest 415 478 40,000  Level FlightAware Transoceanic
Sat 06:46:00 PM 18.9329 139.7889 318° Northwest 415 478 40,000  Level FlightAware Transoceanic
Sat 06:47:00 PM 19.0195 139.7077 318° Northwest 415 478 40,000  Level FlightAware Transoceanic
Sat 06:48:00 PM 19.1060 139.6265 318° Northwest 415 478 40,000  Level FlightAware Transoceanic
Sat 06:49:00 PM 19.1925 139.5451 318° Northwest 415 478 40,000  Level FlightAware Transoceanic
Sat 06:50:00 PM 19.2789 139.4637 318° Northwest 415 478 40,000  Level FlightAware Transoceanic
Sat 06:51:00 PM 19.3653 139.3822 318° Northwest 415 478 40,000  Level FlightAware Transoceanic
Sat 06:52:00 PM 19.4517 139.3006 318° Northwest 415 478 40,000  Level FlightAware Transoceanic
Sat 06:53:00 PM 19.5381 139.2189 318° Northwest 415 478 40,000  Level FlightAware Transoceanic
Sat 06:54:00 PM 19.6244 139.1372 318° Northwest 415 478 40,000  Level FlightAware Transoceanic
Sat 06:55:00 PM 19.7106 139.0553 318° Northwest 415 478 40,000  Level FlightAware Transoceanic
Sat 06:56:00 PM 19.7969 138.9734 318° Northwest 415 478 40,000  Level FlightAware Transoceanic
Sat 06:57:00 PM 19.8830 138.8914 318° Northwest 415 478 40,000  Level FlightAware Transoceanic
Sat 06:58:00 PM 19.9692 138.8092 318° Northwest 415 478 40,000  Level FlightAware Transoceanic
Sat 06:59:00 PM 20.0553 138.7270 318° Northwest 415 478 40,000  Level FlightAware Transoceanic
Sat 07:00:00 PM 20.1414 138.6447 318° Northwest 415 478 40,000  Level FlightAware Transoceanic
Sat 07:01:00 PM 20.2274 138.5623 318° Northwest 415 478 40,000  Level FlightAware Transoceanic
Sat 07:02:00 PM 20.3134 138.4799 318° Northwest 415 478 40,000  Level FlightAware Transoceanic
Sat 07:03:00 PM 20.3994 138.3973 318° Northwest 415 478 40,000  Level FlightAware Transoceanic
Sat 07:04:00 PM 20.4853 138.3146 318° Northwest 415 478 40,000  Level FlightAware Transoceanic
Sat 07:05:00 PM 20.5712 138.2319 318° Northwest 415 478 40,000  Level FlightAware Transoceanic
Sat 07:06:00 PM 20.6570 138.1490 318° Northwest 415 478 40,000  Level FlightAware Transoceanic
Sat 07:07:00 PM 20.7428 138.0661 318° Northwest 415 478 40,000  Level FlightAware Transoceanic
Sat 07:08:00 PM 20.8286 137.9830 318° Northwest 415 478 40,000  Level FlightAware Transoceanic
Sat 07:09:00 PM 20.9143 137.8999 318° Northwest 415 478 40,000  Level FlightAware Transoceanic
Sat 07:10:00 PM 21.0000 137.8167 330° Northwest 415 478 40,000  Level FlightAware Transoceanic
Sat 07:11:00 PM 21.0942 137.7595 330° Northwest 415 478 40,000  Level FlightAware Transoceanic
Sat 07:12:00 PM 21.1885 137.7023 330° Northwest 415 478 40,000  Level FlightAware Transoceanic
Sat 07:13:00 PM 21.2827 137.6450 330° Northwest 415 478 40,000  Level FlightAware Transoceanic
Sat 07:14:00 PM 21.3769 137.5876 330° Northwest 415 478 40,000  Level FlightAware Transoceanic
Sat 07:15:00 PM 21.4710 137.5301 330° Northwest 415 478 40,000  Level FlightAware Transoceanic
Sat 07:16:00 PM 21.5652 137.4726 330° Northwest 415 478 40,000  Level FlightAware Transoceanic
Sat 07:17:00 PM 21.6593 137.4150 330° Northwest 415 478 40,000  Level FlightAware Transoceanic
Sat 07:18:00 PM 21.7534 137.3573 330° Northwest 415 478 40,000  Level FlightAware Transoceanic
Sat 07:19:00 PM 21.8475 137.2996 330° Northwest 415 478 40,000  Level FlightAware Transoceanic
Sat 07:20:00 PM 21.9416 137.2418 330° Northwest 415 478 40,000  Level FlightAware Transoceanic
Sat 07:21:00 PM 22.0356 137.1839 330° Northwest 415 478 40,000  Level FlightAware Transoceanic
Sat 07:22:00 PM 22.1297 137.1259 330° Northwest 415 478 40,000  Level FlightAware Transoceanic
Sat 07:23:00 PM 22.2237 137.0678 330° Northwest 415 478 40,000  Level FlightAware Transoceanic
Sat 07:24:00 PM 22.3176 137.0097 330° Northwest 415 478 40,000  Level FlightAware Transoceanic
Sat 07:25:00 PM 22.4116 136.9515 330° Northwest 415 478 40,000  Level FlightAware Transoceanic
Sat 07:26:00 PM 22.5056 136.8932 330° Northwest 415 478 40,000  Level FlightAware Transoceanic
Sat 07:27:00 PM 22.5995 136.8348 330° Northwest 415 478 40,000  Level FlightAware Transoceanic
Sat 07:28:00 PM 22.6934 136.7763 330° Northwest 415 478 40,000  Level FlightAware Transoceanic
Sat 07:29:00 PM 22.7873 136.7178 330° Northwest 415 478 40,000  Level FlightAware Transoceanic
Sat 07:30:00 PM 22.8811 136.6592 330° Northwest 415 478 40,000  Level FlightAware Transoceanic
Sat 07:31:00 PM 22.9750 136.6005 330° Northwest 415 478 40,000  Level FlightAware Transoceanic
Sat 07:32:00 PM 23.0688 136.5417 330° Northwest 415 478 40,000  Level FlightAware Transoceanic
Sat 07:33:00 PM 23.1626 136.4829 330° Northwest 415 478 40,000  Level FlightAware Transoceanic
Sat 07:34:00 PM 23.2563 136.4239 330° Northwest 415 478 40,000  Level FlightAware Transoceanic
Sat 07:35:00 PM 23.3501 136.3649 330° Northwest 415 478 40,000  Level FlightAware Transoceanic
Sat 07:36:00 PM 23.4438 136.3058 330° Northwest 415 478 40,000  Level FlightAware Transoceanic
Sat 07:37:00 PM 23.5375 136.2466 330° Northwest 415 478 40,000  Level FlightAware Transoceanic
Sat 07:38:00 PM 23.6312 136.1873 330° Northwest 415 478 40,000  Level FlightAware Transoceanic
Sat 07:39:00 PM 23.7249 136.1280 330° Northwest 415 478 40,000  Level FlightAware Transoceanic
Sat 07:40:00 PM 23.8185 136.0685 330° Northwest 415 478 40,000  Level FlightAware Transoceanic
Sat 07:41:00 PM 23.9121 136.0090 330° Northwest 415 478 40,000  Level FlightAware Transoceanic
Sat 07:42:00 PM 24.0057 135.9494 330° Northwest 415 478 40,000  Level FlightAware Transoceanic
Sat 07:43:00 PM 24.0993 135.8897 330° Northwest 415 478 40,000  Level FlightAware Transoceanic
Sat 07:44:00 PM 24.1929 135.8299 330° Northwest 415 478 40,000  Level FlightAware Transoceanic
Sat 07:45:00 PM 24.2864 135.7700 330° Northwest 415 478 40,000  Level FlightAware Transoceanic
Sat 07:46:00 PM 24.3799 135.7100 330° Northwest 415 478 40,000  Level FlightAware Transoceanic
Sat 07:47:00 PM 24.4734 135.6500 330° Northwest 415 478 40,000  Level FlightAware Transoceanic
Sat 07:48:00 PM 24.5668 135.5898 330° Northwest 415 478 40,000  Level FlightAware Transoceanic
Sat 07:49:00 PM 24.6602 135.5296 330° Northwest 415 478 40,000  Level FlightAware Transoceanic
Sat 07:50:00 PM 24.7536 135.4693 330° Northwest 415 478 40,000  Level FlightAware Transoceanic
Sat 07:51:00 PM 24.8470 135.4088 330° Northwest 415 478 40,000  Level FlightAware Transoceanic
Sat 07:52:00 PM 24.9404 135.3483 330° Northwest 415 478 40,000  Level FlightAware Transoceanic
Sat 07:53:00 PM 25.0337 135.2877 330° Northwest 415 478 40,000  Level FlightAware Transoceanic
Sat 07:54:00 PM 25.1270 135.2270 329° Northwest 415 478 40,000  Level FlightAware Transoceanic
Sat 07:55:00 PM 25.2203 135.1662 329° Northwest 415 478 40,000  Level FlightAware Transoceanic
Sat 07:56:00 PM 25.3136 135.1054 329° Northwest 415 478 40,000  Level FlightAware Transoceanic
Sat 07:57:00 PM 25.4068 135.0444 329° Northwest 415 478 40,000 -60 Level FlightAware Transoceanic
Sat 07:58:00 PM 25.4923 134.9762 324° Northwest  Level FlightAware Approximate
Sat 07:59:00 PM 25.4906 134.9785 329° Northwest  Level FlightAware Approximate
Sat 08:00:00 PM 25.5813 134.9191 329° Northwest  Level FlightAware Approximate
Sat 08:01:00 PM 25.6720 134.8596 329° Northwest  Level FlightAware Approximate
Sat 08:02:00 PM 25.7627 134.8000 329° Northwest  Level FlightAware Approximate
Sat 08:03:00 PM 25.8533 134.7404 329° Northwest  Level FlightAware Approximate
Sat 08:04:00 PM 25.9439 134.6806 329° Northwest  Level FlightAware Approximate
Sat 08:05:00 PM 26.0345 134.6207 329° Northwest  Level FlightAware Approximate
Sat 08:06:00 PM 26.1251 134.5608 329° Northwest  Level FlightAware Approximate
Sat 08:07:00 PM 26.2156 134.5007 329° Northwest  Level FlightAware Approximate
Sat 08:08:00 PM 26.3057 134.4397 329° Northwest  Level FlightAware Approximate
Sat 08:09:00 PM 26.3957 134.3787 329° Northwest  Level FlightAware Approximate
Sat 08:10:00 PM 26.4857 134.3175 329° Northwest  Level FlightAware Approximate
Sat 08:11:00 PM 26.5757 134.2562 329° Northwest  Level FlightAware Approximate
Sat 08:12:00 PM 26.6656 134.1948 329° Northwest  Level FlightAware Approximate
Sat 08:13:00 PM 26.7555 134.1334 329° Northwest  Level FlightAware Approximate
Sat 08:14:00 PM 26.8454 134.0718 329° Northwest  Level FlightAware Approximate
Sat 08:15:00 PM 26.9353 134.0101 329° Northwest  Level FlightAware Approximate
Sat 08:16:00 PM 27.0251 133.9484 329° Northwest  Level FlightAware Approximate
Sat 08:17:00 PM 27.1150 133.8865 328° Northwest  Level FlightAware Approximate
Sat 08:18:00 PM 27.2048 133.8246 328° Northwest  Level FlightAware Approximate
Sat 08:19:00 PM 27.2945 133.7625 328° Northwest  Level FlightAware Approximate
Sat 08:20:00 PM 27.3842 133.7003 328° Northwest  Level FlightAware Approximate
Sat 08:21:00 PM 27.4739 133.6381 328° Northwest  Level FlightAware Approximate
Sat 08:22:00 PM 27.5636 133.5757 328° Northwest  Level FlightAware Approximate
Sat 08:23:00 PM 27.6533 133.5133 328° Northwest  Level FlightAware Approximate
Sat 08:24:00 PM 27.7429 133.4507 328° Northwest  Level FlightAware Approximate
Sat 08:25:00 PM 27.8325 133.3880 328° Northwest  Level FlightAware Approximate
Sat 08:26:00 PM 27.9221 133.3253 328° Northwest  Level FlightAware Approximate
Sat 08:27:00 PM 28.0116 133.2624 328° Northwest  Level FlightAware Approximate
Sat 08:28:00 PM 28.1011 133.1994 328° Northwest  Level FlightAware Approximate
Sat 08:29:00 PM 28.1906 133.1363 328° Northwest  Level FlightAware Approximate
Sat 08:30:00 PM 28.2800 133.0731 328° Northwest  Level FlightAware Approximate
Sat 08:31:00 PM 28.3695 133.0098 328° Northwest  Level FlightAware Approximate
Sat 08:32:00 PM 28.4589 132.9466 328° Northwest  Level FlightAware Approximate
Sat 08:33:00 PM 28.5484 132.8832 328° Northwest  Level FlightAware Approximate
Sat 08:34:00 PM 28.6378 132.8198 328° Northwest  Level FlightAware Approximate
Sat 08:35:00 PM 28.7272 132.7562 328° Northwest  Level FlightAware Approximate
Sat 08:36:00 PM 28.8166 132.6926 328° Northwest  Level FlightAware Approximate
Sat 08:37:00 PM 28.9059 132.6288 328° Northwest  Level FlightAware Approximate
Sat 08:38:00 PM 28.9952 132.5649 328° Northwest  Level FlightAware Approximate
Sat 08:39:00 PM 29.0845 132.5009 328° Northwest  Level FlightAware Approximate
Sat 08:40:00 PM 29.1737 132.4368 328° Northwest  Level FlightAware Approximate
Sat 08:41:00 PM 29.2630 132.3726 328° Northwest  Level FlightAware Approximate
Sat 08:42:00 PM 29.3522 132.3083 328° Northwest  Level FlightAware Approximate
Sat 08:43:00 PM 29.4413 132.2438 328° Northwest  Level FlightAware Approximate
Sat 08:44:00 PM 29.5304 132.1793 328° Northwest  Level FlightAware Approximate
Sat 08:45:00 PM 29.6195 132.1146 327° Northwest  Level FlightAware Approximate
Sat 08:46:00 PM 29.7082 132.0491 327° Northwest  Level FlightAware Approximate
Sat 08:47:00 PM 29.7968 131.9835 327° Northwest  Level FlightAware Approximate
Sat 08:48:00 PM 29.8854 131.9178 327° Northwest  Level FlightAware Approximate
Sat 08:49:00 PM 29.9740 131.8520 327° Northwest  Level FlightAware Approximate
Sat 08:50:00 PM 30.0625 131.7860 327° Northwest  Level FlightAware Approximate
Sat 08:51:00 PM 30.1510 131.7199 327° Northwest  Level FlightAware Approximate
Sat 08:52:00 PM 30.2397 131.6540 327° Northwest  Level FlightAware Approximate
Sat 08:53:00 PM 30.3284 131.5883 327° Northwest  Level FlightAware Approximate
Sat 08:54:00 PM 30.4172 131.5224 327° Northwest  Level FlightAware Approximate
Sat 08:55:00 PM 30.5059 131.4565 327° Northwest  Level FlightAware Approximate
Sat 08:56:00 PM 30.5945 131.3904 327° Northwest  Level FlightAware Approximate
Sat 08:57:00 PM 30.6832 131.3242 327° Northwest  Level FlightAware Approximate
Sat 08:58:00 PM 30.7718 131.2578 327° Northwest  Level FlightAware Approximate
Sat 08:59:00 PM 30.8603 131.1914 327° Northwest  Level FlightAware Approximate
Sat 09:00:00 PM 30.9489 131.1248 327° Northwest  Level FlightAware Approximate
Sat 09:01:00 PM 31.0374 131.0581 327° Northwest  Level FlightAware Approximate
Sat 09:02:00 PM 31.1251 130.9918 327° Northwest  Level FlightAware Approximate
Sat 09:02:27 PM 30.8490 130.9000 327° Northwest 398 458 36,000  Level FlightAware ADS-B
Sat 09:03:00 PM 31.2128 130.9254 327° Northwest  Level FlightAware Approximate
Sat 09:03:17 PM 30.9400 130.8660 342° North 396 456 36,000  Level FlightAware ADS-B
Sat 09:03:57 PM 31.0090 130.8400 342° North 397 457 36,000  Level FlightAware ADS-B
Sat 09:04:42 PM 31.0890 130.8100 342° North 398 458 36,000  Level FlightAware ADS-B
Sat 09:05:22 PM 31.1570 130.7860 343° North 402 463 36,000  Level FlightAware ADS-B
Sat 09:06:07 PM 31.2400 130.7550 342° North 405 466 36,000  Level FlightAware ADS-B
Sat 09:06:47 PM 31.3100 130.7290 342° North 402 463 36,000  Level FlightAware ADS-B
Sat 09:07:32 PM 31.3920 130.6980 342° North 401 461 36,000  Level FlightAware ADS-B
Sat 09:08:12 PM 31.4620 130.6720 342° North 399 459 36,000  Level FlightAware ADS-B
Sat 09:08:57 PM 31.5410 130.6420 342° North 396 456 36,000  Level FlightAware ADS-B
Sat 09:09:37 PM 31.6100 130.6160 342° North 394 453 36,000  Level FlightAware ADS-B
Sat 09:10:22 PM 31.6900 130.5860 342° North 396 456 36,000  Level FlightAware ADS-B
Sat 09:11:02 PM 31.7580 130.5600 342° North 398 458 36,000  Level FlightAware ADS-B
Sat 09:11:47 PM 31.8380 130.5290 342° North 397 457 36,000  Level FlightAware ADS-B
Sat 09:12:27 PM 31.9080 130.5010 341° North 397 457 36,000  Level FlightAware ADS-B
Sat 09:13:32 PM 32.0180 130.4580 342° North 394 453 36,000  Level FlightAware ADS-B
Sat 09:14:12 PM 32.0900 130.4310 342° North 391 450 36,000  Level FlightAware ADS-B
Sat 09:14:57 PM 32.1630 130.4020 341° North 391 450 36,000  Level FlightAware ADS-B
Sat 09:15:42 PM 32.2420 130.3710 342° North 391 450 36,000  Level FlightAware ADS-B
Sat 09:16:22 PM 32.3100 130.3450 342° North 392 451 36,000  Level FlightAware ADS-B
Sat 09:17:07 PM 32.3880 130.3140 341° North 393 452 36,000  Level FlightAware ADS-B
Sat 09:17:52 PM 32.4670 130.2830 342° North 392 451 36,000 -424 Level FlightAware ADS-B
Sat 09:18:32 PM 32.5330 130.2570 342° North 390 449 35,400 -975 Descending FlightAware ADS-B
Sat 09:19:12 PM 32.6040 130.2290 342° North 392 451 34,700 -988 Descending FlightAware ADS-B
Sat 09:19:57 PM 32.6810 130.1990 342° North 397 457 34,000 -988 Descending FlightAware ADS-B
Sat 09:20:37 PM 32.7550 130.1710 342° North 400 460 33,300 -1,473 Descending FlightAware ADS-B
Sat 09:21:47 PM 32.8780 130.1220 342° North 387 445 31,300 -2,073 Descending FlightAware ADS-B
Sat 09:22:27 PM 32.9450 130.0960 342° North 377 434 29,500 -3,035 Descending FlightAware ADS-B
Sat 09:23:12 PM 33.0180 130.0670 342° North 385 443 27,000 -3,450 Descending FlightAware ADS-B
Sat 09:23:47 PM 33.0800 130.0420 341° North 390 449 24,900 -2,965 Descending FlightAware ADS-B
Sat 09:24:37 PM 33.1650 130.0090 342° North 375 432 22,800 -2,533 Descending FlightAware ADS-B
Sat 09:25:17 PM 33.2300 129.9830 342° North 366 421 21,100 -2,850 Descending FlightAware ADS-B
Sat 09:25:57 PM 33.2960 129.9630 346° North 381 438 19,000 -3,086 Descending FlightAware ADS-B
Sat 09:26:27 PM 33.3480 129.9670 North 386 444 17,500 -2,880 Descending FlightAware ADS-B
Sat 09:27:12 PM 33.4290 129.9720 North 371 427 15,400 -2,612 Descending FlightAware ADS-B
Sat 09:27:52 PM 33.4960 129.9750 North 356 410 13,800 -2,400 Descending FlightAware ADS-B
Sat 09:28:32 PM 33.5590 129.9780 North 341 392 12,200 -1,694 Descending FlightAware ADS-B
Sat 09:29:17 PM 33.6280 129.9810 North 301 346 11,400 -847 Descending FlightAware ADS-B
Sat 09:29:57 PM 33.6800 129.9830 North 269 310 11,000 -600 Descending FlightAware ADS-B
Sat 09:30:37 PM 33.7250 129.9850 North 244 281 10,600 -706 Descending FlightAware ADS-B
Sat 09:31:22 PM 33.7750 129.9890 North 229 264 10,000 -771 Descending FlightAware ADS-B
Sat 09:31:47 PM 33.8000 129.9910 North 220 253 9,700 -764 Descending FlightAware ADS-B
Sat 09:32:17 PM 33.8290 129.9990 13° North 233 268 9,300 -1,067 Descending FlightAware ADS-B
Sat 09:32:32 PM 33.8390 130.0180 58° Northeast 256 295 8,900 -1,200 Descending FlightAware ADS-B
Sat 09:33:02 PM 33.8440 130.0610 82° East 254 292 8,400 -982 Descending FlightAware ADS-B
Sat 09:33:27 PM 33.8490 130.0950 80° East 252 290 8,000 -1,091 Descending FlightAware ADS-B
Sat 09:33:57 PM 33.8540 130.1380 82° East 253 291 7,400 -1,091 Descending FlightAware ADS-B
Sat 09:34:22 PM 33.8460 130.1710 106° East 263 303 7,000 -900 Descending FlightAware ADS-B
Sat 09:34:37 PM 33.8330 130.1830 143° Southeast 260 299 6,800 -933 Descending FlightAware ADS-B
Sat 09:35:07 PM 33.8040 130.2080 144° Southeast 255 293 6,300 -818 Descending FlightAware ADS-B
Sat 09:36:27 PM 33.7330 130.2690 144° Southeast 215 247 5,300 -750 Descending FlightAware ADS-B
Sat 09:37:47 PM 33.6670 130.3200 147° Southeast 191 220 4,300 -730 Descending FlightAware ADS-B
Sat 09:38:22 PM 33.6510 130.3330 146° Southeast 193 222 3,900 -800 Descending FlightAware ADS-B
Sat 09:38:47 PM 33.6320 130.3470 148° Southeast 193 222 3,500 -1,080 Descending FlightAware ADS-B
Sat 09:39:12 PM 33.6090 130.3640 148° Southeast 190 219 3,000 -960 Descending FlightAware ADS-B
Sat 09:39:37 PM 33.5920 130.3770 148° Southeast 186 214 2,700 -655 Descending FlightAware ADS-B
Sat 09:40:07 PM 33.5740 130.3960 139° Southeast 177 204 2,400 -675 Descending FlightAware ADS-B
Sat 09:40:57 PM 33.5350 130.4340 141° Southeast 156 180 1,800 -640 Descending FlightAware ADS-B
Sat 09:41:22 PM 33.5210 130.4480 140° Southeast 151 174 1,600 -600 Descending FlightAware ADS-B
Sat 09:41:37 PM 33.5170 130.4580 116° Southeast 140 161 1,400 -667 Descending FlightAware ADS-B
Sat 09:42:07 PM 33.5240 130.4760 65° Northeast 121 139 1,100 -667 Descending FlightAware ADS-B
Sat 09:42:22 PM 33.5310 130.4830 40° Northeast 118 136 900 -600 Descending FlightAware ADS-B
Sat 09:42:27 PM 33.5340 130.4840 16° North 115 132 900 -600 Level FlightAware ADS-B
Sat 09:42:52 PM 33.5460 130.4780 337° Northwest 112 129 600 -720 Descending FlightAware ADS-B
Sat 09:43:17 PM 33.5590 130.4690 330° Northwest 114 131 300 -600 Descending FlightAware ADS-B
Sat 09:43:42 PM 33.5690 130.4620 330° Northwest 117 135 100 -240 Descending FlightAware ADS-B
Sat 09:44:07 PM 33.5800 130.4540 329° Northwest 117 135 100  Level FlightAware ADS-B
Sat 09:45:07 PM 33.5890 130.4470 327° Northwest -100 Descending FlightAware ADS-B
Sat 09:45:22 PM 33.5900 130.4460 320° Northwest  Level FlightAware ADS-B
Sat 09:45:42 PM 33.5890 130.4450 220° Southwest  Level FlightAware ADS-B

Login

Don't have an account? Register now (free) for customized features, flight alerts, and more!